Mount Olive, Mississippi
Current Conditions -  °F | °C
As of 6:15 PM on Thursday 27 Nov 2014 (Local Time) from KPIB Reporting Station
Clear Clear  
Wind Chill: 39°   Ceiling: Unl
Heat Index: 43°   Visibility: 10mi
Dew Point: 30°   Wind: 7mph
Humidity: 61%   Direction: 340°NNW
Pressure: 30.45"   Gusts: NA
Location:  31.76°N, 89.66°W
Report Text: KPIB 280015Z AUTO 34006KT 10SM CLR 06/M01 A3045 RMK AO1
Loading
Personal Weather Stations






























Interactive Weather Map New forecast layout! Learn more

10-Day Weather Forecast

Advertisements
Track Severe Weather on mobile